EGPD/ABZ METAR and TAF weather

Enter ICAO airport designator
Station Type Date Time Source
EGPD METAR 2019/10/23 07:20 UTC NOAA

EGPD 230720Z AUTO 18010KT 9999 -RA NCD 10/07 Q1007 NOSIG


Station Type Date Time Source
EGPD Decoded METAR 2019/10/23 07:20 UTC NOAA

Aberdeen / Dyce, United Kingdom (EGPD) 57-12N 002-13W 0M
Oct 23, 2019 - 03:20 AM EDT / 2019.10.23 0720 UTC
Wind: from the S (180 degrees) at 12 MPH (10 KT):0
Visibility: greater than 7 mile(s):0
Weather: light rain
Temperature: 50 F (10 C)
Dew Point: 44 F (7 C)
Relative Humidity: 81%
Pressure (altimeter): 29.74 in. Hg (1007 hPa)
ob: EGPD 230720Z AUTO 18010KT 9999 -RA NCD 10/07 Q1007 NOSIG
cycle: 7

Station Type Date Time Source
EGPD TAF 2019/10/23 06:09 UTC NOAA

TAF EGPD 230502Z 2306/2406 18009KT 9999 FEW015 SCT035 PROB30
TEMPO 2306/2310 BKN012
TEMPO 2312/2403 19018G28KT
TEMPO 2320/2403 8000 -RA BKN010

Example: see airport list